sensor_id;sensor_type;location;lat;lon;timestamp;P1;durP1;ratioP1;P2;durP2;ratioP2
25962;SDS011;13760;52.588;13.406;2023-04-22T00:01:16;10.70;;;7.45;;
25962;SDS011;13760;52.588;13.406;2023-04-22T00:03:43;11.75;;;8.07;;
25962;SDS011;13760;52.588;13.406;2023-04-22T00:06:09;11.52;;;7.95;;
25962;SDS011;13760;52.588;13.406;2023-04-22T00:08:35;16.55;;;8.25;;
25962;SDS011;13760;52.588;13.406;2023-04-22T00:11:01;9.35;;;7.63;;
25962;SDS011;13760;52.588;13.406;2023-04-22T00:13:27;10.52;;;8.02;;
25962;SDS011;13760;52.588;13.406;2023-04-22T00:15:52;13.82;;;8.18;;
25962;SDS011;13760;52.588;13.406;2023-04-22T00:18:18;11.70;;;7.72;;
25962;SDS011;13760;52.588;13.406;2023-04-22T00:20:44;11.27;;;7.45;;
25962;SDS011;13760;52.588;13.406;2023-04-22T00:23:10;11.40;;;8.20;;
25962;SDS011;13760;52.588;13.406;2023-04-22T00:25:36;11.30;;;8.68;;
25962;SDS011;13760;52.588;13.406;2023-04-22T00:28:03;12.15;;;8.20;;
25962;SDS011;13760;52.588;13.406;2023-04-22T00:30:29;15.18;;;8.15;;
25962;SDS011;13760;52.588;13.406;2023-04-22T00:32:55;16.13;;;8.35;;
25962;SDS011;13760;52.588;13.406;2023-04-22T00:35:20;10.98;;;7.95;;
25962;SDS011;13760;52.588;13.406;2023-04-22T00:37:46;13.93;;;8.32;;
25962;SDS011;13760;52.588;13.406;2023-04-22T00:40:11;12.13;;;8.05;;
25962;SDS011;13760;52.588;13.406;2023-04-22T00:42:37;11.23;;;7.97;;
25962;SDS011;13760;52.588;13.406;2023-04-22T00:45:03;10.40;;;7.90;;
25962;SDS011;13760;52.588;13.406;2023-04-22T00:47:33;13.75;;;8.02;;
25962;SDS011;13760;52.588;13.406;2023-04-22T00:50:00;13.27;;;8.13;;
25962;SDS011;13760;52.588;13.406;2023-04-22T00:52:26;10.13;;;7.53;;
25962;SDS011;13760;52.588;13.406;2023-04-22T00:54:52;12.63;;;8.52;;
25962;SDS011;13760;52.588;13.406;2023-04-22T00:57:18;12.38;;;8.32;;
25962;SDS011;13760;52.588;13.406;2023-04-22T00:59:44;12.73;;;8.73;;
25962;SDS011;13760;52.588;13.406;2023-04-22T01:02:10;12.40;;;8.40;;
25962;SDS011;13760;52.588;13.406;2023-04-22T01:04:36;11.38;;;8.27;;
25962;SDS011;13760;52.588;13.406;2023-04-22T01:07:03;14.88;;;8.70;;
25962;SDS011;13760;52.588;13.406;2023-04-22T01:09:29;12.52;;;7.90;;
25962;SDS011;13760;52.588;13.406;2023-04-22T01:11:54;13.43;;;8.02;;
25962;SDS011;13760;52.588;13.406;2023-04-22T01:14:21;15.88;;;8.38;;
25962;SDS011;13760;52.588;13.406;2023-04-22T01:16:47;13.35;;;8.48;;
25962;SDS011;13760;52.588;13.406;2023-04-22T01:19:14;10.45;;;8.23;;
25962;SDS011;13760;52.588;13.406;2023-04-22T01:21:40;13.30;;;8.20;;
25962;SDS011;13760;52.588;13.406;2023-04-22T01:24:09;13.07;;;8.07;;
25962;SDS011;13760;52.588;13.406;2023-04-22T01:26:35;13.27;;;8.20;;
25962;SDS011;13760;52.588;13.406;2023-04-22T01:29:01;11.55;;;8.27;;
25962;SDS011;13760;52.588;13.406;2023-04-22T01:31:28;10.70;;;8.02;;
25962;SDS011;13760;52.588;13.406;2023-04-22T01:33:54;12.00;;;8.82;;
25962;SDS011;13760;52.588;13.406;2023-04-22T01:36:20;12.05;;;8.23;;
25962;SDS011;13760;52.588;13.406;2023-04-22T01:38:46;17.15;;;8.30;;
25962;SDS011;13760;52.588;13.406;2023-04-22T01:41:12;12.02;;;8.18;;
25962;SDS011;13760;52.588;13.406;2023-04-22T01:43:38;12.48;;;8.77;;
25962;SDS011;13760;52.588;13.406;2023-04-22T01:46:04;13.38;;;8.60;;
25962;SDS011;13760;52.588;13.406;2023-04-22T01:48:30;11.10;;;8.30;;
25962;SDS011;13760;52.588;13.406;2023-04-22T01:50:56;14.63;;;8.70;;
25962;SDS011;13760;52.588;13.406;2023-04-22T01:53:22;12.02;;;8.63;;
25962;SDS011;13760;52.588;13.406;2023-04-22T01:55:48;11.73;;;8.23;;
25962;SDS011;13760;52.588;13.406;2023-04-22T01:58:13;9.80;;;8.27;;
25962;SDS011;13760;52.588;13.406;2023-04-22T02:00:39;11.20;;;7.88;;
25962;SDS011;13760;52.588;13.406;2023-04-22T02:03:04;12.10;;;8.05;;
25962;SDS011;13760;52.588;13.406;2023-04-22T02:05:30;12.50;;;8.85;;
25962;SDS011;13760;52.588;13.406;2023-04-22T02:07:56;10.18;;;7.88;;
25962;SDS011;13760;52.588;13.406;2023-04-22T02:10:21;12.32;;;8.55;;
25962;SDS011;13760;52.588;13.406;2023-04-22T02:12:48;12.38;;;9.25;;
25962;SDS011;13760;52.588;13.406;2023-04-22T02:15:13;13.07;;;8.85;;
25962;SDS011;13760;52.588;13.406;2023-04-22T02:17:39;16.55;;;8.82;;
25962;SDS011;13760;52.588;13.406;2023-04-22T02:20:06;12.80;;;8.35;;
25962;SDS011;13760;52.588;13.406;2023-04-22T02:22:35;14.90;;;8.80;;
25962;SDS011;13760;52.588;13.406;2023-04-22T02:25:01;13.98;;;9.40;;
25962;SDS011;13760;52.588;13.406;2023-04-22T02:27:27;10.75;;;7.97;;
25962;SDS011;13760;52.588;13.406;2023-04-22T02:29:53;13.65;;;8.80;;
25962;SDS011;13760;52.588;13.406;2023-04-22T02:32:18;14.52;;;8.80;;
25962;SDS011;13760;52.588;13.406;2023-04-22T02:34:44;13.07;;;8.68;;
25962;SDS011;13760;52.588;13.406;2023-04-22T02:37:11;16.48;;;9.77;;
25962;SDS011;13760;52.588;13.406;2023-04-22T02:39:36;13.18;;;8.50;;
25962;SDS011;13760;52.588;13.406;2023-04-22T02:42:02;12.52;;;8.45;;
25962;SDS011;13760;52.588;13.406;2023-04-22T02:44:27;11.30;;;8.40;;
25962;SDS011;13760;52.588;13.406;2023-04-22T02:46:53;18.83;;;9.20;;
25962;SDS011;13760;52.588;13.406;2023-04-22T02:49:19;13.07;;;9.02;;
25962;SDS011;13760;52.588;13.406;2023-04-22T02:51:45;11.02;;;9.05;;
25962;SDS011;13760;52.588;13.406;2023-04-22T02:54:10;14.65;;;9.13;;
25962;SDS011;13760;52.588;13.406;2023-04-22T02:56:36;12.93;;;8.65;;
25962;SDS011;13760;52.588;13.406;2023-04-22T02:59:01;13.10;;;8.10;;
25962;SDS011;13760;52.588;13.406;2023-04-22T03:01:27;11.52;;;8.40;;
25962;SDS011;13760;52.588;13.406;2023-04-22T03:03:53;13.10;;;8.57;;
25962;SDS011;13760;52.588;13.406;2023-04-22T03:06:20;12.70;;;8.52;;
25962;SDS011;13760;52.588;13.406;2023-04-22T03:08:46;10.93;;;7.85;;
25962;SDS011;13760;52.588;13.406;2023-04-22T03:11:11;14.30;;;8.70;;
25962;SDS011;13760;52.588;13.406;2023-04-22T03:13:37;11.70;;;7.88;;
25962;SDS011;13760;52.588;13.406;2023-04-22T03:16:03;15.20;;;8.88;;
25962;SDS011;13760;52.588;13.406;2023-04-22T03:18:29;13.85;;;8.98;;
25962;SDS011;13760;52.588;13.406;2023-04-22T03:20:55;12.60;;;8.32;;
25962;SDS011;13760;52.588;13.406;2023-04-22T03:23:20;14.45;;;8.75;;
25962;SDS011;13760;52.588;13.406;2023-04-22T03:25:46;14.77;;;9.38;;
25962;SDS011;13760;52.588;13.406;2023-04-22T03:28:12;13.60;;;8.77;;
25962;SDS011;13760;52.588;13.406;2023-04-22T03:30:37;14.00;;;9.20;;
25962;SDS011;13760;52.588;13.406;2023-04-22T03:33:03;10.65;;;8.05;;
25962;SDS011;13760;52.588;13.406;2023-04-22T03:35:28;13.25;;;8.80;;
25962;SDS011;13760;52.588;13.406;2023-04-22T03:37:54;13.52;;;8.40;;
25962;SDS011;13760;52.588;13.406;2023-04-22T03:40:20;13.88;;;9.13;;
25962;SDS011;13760;52.588;13.406;2023-04-22T03:42:45;14.38;;;8.70;;
25962;SDS011;13760;52.588;13.406;2023-04-22T03:45:11;15.57;;;9.00;;
25962;SDS011;13760;52.588;13.406;2023-04-22T03:47:37;16.23;;;9.02;;
25962;SDS011;13760;52.588;13.406;2023-04-22T03:50:02;14.52;;;9.30;;
25962;SDS011;13760;52.588;13.406;2023-04-22T03:52:28;14.00;;;8.63;;
25962;SDS011;13760;52.588;13.406;2023-04-22T03:54:54;13.95;;;9.48;;
25962;SDS011;13760;52.588;13.406;2023-04-22T03:57:19;12.55;;;8.82;;
25962;SDS011;13760;52.588;13.406;2023-04-22T03:59:45;16.33;;;9.90;;
25962;SDS011;13760;52.588;13.406;2023-04-22T04:02:10;13.27;;;9.23;;
25962;SDS011;13760;52.588;13.406;2023-04-22T04:04:36;17.33;;;9.30;;
25962;SDS011;13760;52.588;13.406;2023-04-22T04:07:01;13.98;;;9.40;;
25962;SDS011;13760;52.588;13.406;2023-04-22T04:09:27;16.20;;;9.55;;
25962;SDS011;13760;52.588;13.406;2023-04-22T04:11:53;15.45;;;10.02;;
25962;SDS011;13760;52.588;13.406;2023-04-22T04:14:18;14.45;;;10.00;;
25962;SDS011;13760;52.588;13.406;2023-04-22T04:16:44;14.07;;;9.80;;
25962;SDS011;13760;52.588;13.406;2023-04-22T04:19:10;15.65;;;10.05;;
25962;SDS011;13760;52.588;13.406;2023-04-22T04:21:35;18.00;;;10.23;;
25962;SDS011;13760;52.588;13.406;2023-04-22T04:24:04;14.60;;;9.98;;
25962;SDS011;13760;52.588;13.406;2023-04-22T04:26:30;20.15;;;11.20;;
25962;SDS011;13760;52.588;13.406;2023-04-22T04:28:56;13.77;;;9.98;;
25962;SDS011;13760;52.588;13.406;2023-04-22T04:31:22;15.80;;;10.45;;
25962;SDS011;13760;52.588;13.406;2023-04-22T04:33:48;16.38;;;10.23;;
25962;SDS011;13760;52.588;13.406;2023-04-22T04:36:14;15.25;;;9.75;;
25962;SDS011;13760;52.588;13.406;2023-04-22T04:38:40;16.63;;;11.02;;
25962;SDS011;13760;52.588;13.406;2023-04-22T04:41:08;13.82;;;10.35;;
25962;SDS011;13760;52.588;13.406;2023-04-22T04:43:34;15.55;;;10.65;;
25962;SDS011;13760;52.588;13.406;2023-04-22T04:46:00;16.67;;;10.70;;
25962;SDS011;13760;52.588;13.406;2023-04-22T04:48:26;15.70;;;10.65;;
25962;SDS011;13760;52.588;13.406;2023-04-22T04:50:52;23.15;;;10.25;;
25962;SDS011;13760;52.588;13.406;2023-04-22T04:53:20;15.20;;;10.10;;
25962;SDS011;13760;52.588;13.406;2023-04-22T04:55:46;15.55;;;10.25;;
25962;SDS011;13760;52.588;13.406;2023-04-22T04:58:12;16.75;;;10.57;;
25962;SDS011;13760;52.588;13.406;2023-04-22T05:00:37;16.60;;;10.68;;
25962;SDS011;13760;52.588;13.406;2023-04-22T05:03:03;14.77;;;10.43;;
25962;SDS011;13760;52.588;13.406;2023-04-22T05:05:29;17.30;;;10.18;;
25962;SDS011;13760;52.588;13.406;2023-04-22T05:07:55;16.95;;;10.88;;
25962;SDS011;13760;52.588;13.406;2023-04-22T05:10:20;19.67;;;11.13;;
25962;SDS011;13760;52.588;13.406;2023-04-22T05:12:46;15.68;;;10.25;;
25962;SDS011;13760;52.588;13.406;2023-04-22T05:15:12;16.98;;;10.45;;
25962;SDS011;13760;52.588;13.406;2023-04-22T05:17:38;16.88;;;11.23;;
25962;SDS011;13760;52.588;13.406;2023-04-22T05:20:04;19.27;;;10.73;;
25962;SDS011;13760;52.588;13.406;2023-04-22T05:22:30;16.58;;;11.05;;
25962;SDS011;13760;52.588;13.406;2023-04-22T05:24:56;16.75;;;10.73;;
25962;SDS011;13760;52.588;13.406;2023-04-22T05:27:21;18.70;;;10.43;;
25962;SDS011;13760;52.588;13.406;2023-04-22T05:29:54;16.55;;;10.90;;
25962;SDS011;13760;52.588;13.406;2023-04-22T05:32:21;17.70;;;11.15;;
25962;SDS011;13760;52.588;13.406;2023-04-22T05:34:47;18.33;;;11.13;;
25962;SDS011;13760;52.588;13.406;2023-04-22T05:37:12;16.83;;;10.27;;
25962;SDS011;13760;52.588;13.406;2023-04-22T05:39:38;17.85;;;11.27;;
25962;SDS011;13760;52.588;13.406;2023-04-22T05:42:04;18.38;;;10.52;;
25962;SDS011;13760;52.588;13.406;2023-04-22T05:44:30;15.60;;;10.23;;
25962;SDS011;13760;52.588;13.406;2023-04-22T05:46:55;18.30;;;11.10;;
25962;SDS011;13760;52.588;13.406;2023-04-22T05:49:21;14.80;;;10.88;;
25962;SDS011;13760;52.588;13.406;2023-04-22T05:51:46;20.35;;;11.30;;
25962;SDS011;13760;52.588;13.406;2023-04-22T05:54:12;20.38;;;10.68;;
25962;SDS011;13760;52.588;13.406;2023-04-22T05:56:38;17.55;;;10.85;;
25962;SDS011;13760;52.588;13.406;2023-04-22T05:59:05;19.17;;;11.43;;
25962;SDS011;13760;52.588;13.406;2023-04-22T06:01:31;12.93;;;9.98;;
25962;SDS011;13760;52.588;13.406;2023-04-22T06:03:57;17.70;;;10.25;;
25962;SDS011;13760;52.588;13.406;2023-04-22T06:06:22;17.80;;;10.20;;
25962;SDS011;13760;52.588;13.406;2023-04-22T06:08:51;17.15;;;10.52;;
25962;SDS011;13760;52.588;13.406;2023-04-22T06:11:16;18.10;;;10.77;;
25962;SDS011;13760;52.588;13.406;2023-04-22T06:13:42;16.30;;;10.43;;
25962;SDS011;13760;52.588;13.406;2023-04-22T06:16:07;17.15;;;10.43;;
25962;SDS011;13760;52.588;13.406;2023-04-22T06:18:33;17.02;;;11.27;;
25962;SDS011;13760;52.588;13.406;2023-04-22T06:21:00;16.80;;;10.50;;
25962;SDS011;13760;52.588;13.406;2023-04-22T06:23:26;16.80;;;10.85;;
25962;SDS011;13760;52.588;13.406;2023-04-22T06:25:51;17.98;;;10.95;;
25962;SDS011;13760;52.588;13.406;2023-04-22T06:28:17;15.30;;;10.23;;
25962;SDS011;13760;52.588;13.406;2023-04-22T06:30:43;18.50;;;11.00;;
25962;SDS011;13760;52.588;13.406;2023-04-22T06:33:08;17.52;;;10.30;;
25962;SDS011;13760;52.588;13.406;2023-04-22T06:35:34;15.82;;;10.18;;
25962;SDS011;13760;52.588;13.406;2023-04-22T06:38:00;15.43;;;10.32;;
25962;SDS011;13760;52.588;13.406;2023-04-22T06:40:25;16.92;;;10.50;;
25962;SDS011;13760;52.588;13.406;2023-04-22T06:42:51;20.60;;;10.82;;
25962;SDS011;13760;52.588;13.406;2023-04-22T06:45:16;15.88;;;9.90;;
25962;SDS011;13760;52.588;13.406;2023-04-22T06:47:42;18.05;;;10.55;;
25962;SDS011;13760;52.588;13.406;2023-04-22T06:50:08;17.40;;;10.68;;
25962;SDS011;13760;52.588;13.406;2023-04-22T06:52:34;15.35;;;9.55;;
25962;SDS011;13760;52.588;13.406;2023-04-22T06:55:01;15.98;;;10.40;;
25962;SDS011;13760;52.588;13.406;2023-04-22T06:57:27;15.05;;;9.88;;
25962;SDS011;13760;52.588;13.406;2023-04-22T06:59:56;18.35;;;10.27;;
25962;SDS011;13760;52.588;13.406;2023-04-22T07:02:22;16.35;;;9.65;;
25962;SDS011;13760;52.588;13.406;2023-04-22T07:04:51;14.30;;;9.27;;
25962;SDS011;13760;52.588;13.406;2023-04-22T07:07:23;15.20;;;9.98;;
25962;SDS011;13760;52.588;13.406;2023-04-22T07:09:52;15.35;;;9.73;;
25962;SDS011;13760;52.588;13.406;2023-04-22T07:12:18;16.00;;;9.50;;
25962;SDS011;13760;52.588;13.406;2023-04-22T07:14:52;14.38;;;9.88;;
25962;SDS011;13760;52.588;13.406;2023-04-22T07:17:22;13.82;;;9.45;;
25962;SDS011;13760;52.588;13.406;2023-04-22T07:19:54;15.25;;;9.63;;
25962;SDS011;13760;52.588;13.406;2023-04-22T07:25:21;16.70;;;8.57;;
25962;SDS011;13760;52.588;13.406;2023-04-22T07:34:33;14.98;;;9.10;;
25962;SDS011;13760;52.588;13.406;2023-04-22T07:40:41;17.60;;;9.40;;
25962;SDS011;13760;52.588;13.406;2023-04-22T07:49:51;16.50;;;8.73;;
25962;SDS011;13760;52.588;13.406;2023-04-22T07:59:15;16.02;;;9.00;;
25962;SDS011;13760;52.588;13.406;2023-04-22T08:05:31;13.85;;;8.93;;
25962;SDS011;13760;52.588;13.406;2023-04-22T08:14:33;11.32;;;8.13;;
25962;SDS011;13760;52.588;13.406;2023-04-22T08:17:25;12.82;;;8.00;;
25962;SDS011;13760;52.588;13.406;2023-04-22T08:20:04;15.75;;;8.32;;
25962;SDS011;13760;52.588;13.406;2023-04-22T08:22:31;11.50;;;7.60;;
25962;SDS011;13760;52.588;13.406;2023-04-22T08:25:08;11.70;;;8.23;;
25962;SDS011;13760;52.588;13.406;2023-04-22T08:27:43;11.68;;;8.10;;
25962;SDS011;13760;52.588;13.406;2023-04-22T08:30:28;10.80;;;7.32;;
25962;SDS011;13760;52.588;13.406;2023-04-22T08:33:07;10.07;;;7.03;;
25962;SDS011;13760;52.588;13.406;2023-04-22T08:35:45;13.23;;;7.70;;
25962;SDS011;13760;52.588;13.406;2023-04-22T08:38:20;10.93;;;7.50;;
25962;SDS011;13760;52.588;13.406;2023-04-22T08:40:45;9.38;;;7.13;;
25962;SDS011;13760;52.588;13.406;2023-04-22T08:43:12;10.30;;;6.97;;
25962;SDS011;13760;52.588;13.406;2023-04-22T08:45:39;9.10;;;7.18;;
25962;SDS011;13760;52.588;13.406;2023-04-22T08:48:06;10.18;;;6.18;;
25962;SDS011;13760;52.588;13.406;2023-04-22T08:50:33;13.38;;;7.00;;
25962;SDS011;13760;52.588;13.406;2023-04-22T08:53:07;12.15;;;7.10;;
25962;SDS011;13760;52.588;13.406;2023-04-22T08:58:37;12.57;;;6.65;;
25962;SDS011;13760;52.588;13.406;2023-04-22T09:05:00;13.18;;;6.90;;
25962;SDS011;13760;52.588;13.406;2023-04-22T09:07:34;14.98;;;6.88;;
25962;SDS011;13760;52.588;13.406;2023-04-22T09:10:07;17.45;;;6.78;;
25962;SDS011;13760;52.588;13.406;2023-04-22T09:12:48;11.57;;;6.70;;
25962;SDS011;13760;52.588;13.406;2023-04-22T09:15:30;8.88;;;6.65;;
25962;SDS011;13760;52.588;13.406;2023-04-22T09:17:58;13.10;;;6.60;;
25962;SDS011;13760;52.588;13.406;2023-04-22T09:20:31;13.15;;;6.60;;
25962;SDS011;13760;52.588;13.406;2023-04-22T09:23:07;9.38;;;6.10;;
25962;SDS011;13760;52.588;13.406;2023-04-22T09:25:40;11.68;;;6.22;;
25962;SDS011;13760;52.588;13.406;2023-04-22T09:31:12;13.55;;;6.80;;
25962;SDS011;13760;52.588;13.406;2023-04-22T09:36:11;9.55;;;5.78;;
25962;SDS011;13760;52.588;13.406;2023-04-22T09:41:39;8.82;;;6.00;;
25962;SDS011;13760;52.588;13.406;2023-04-22T09:44:13;12.18;;;5.68;;
25962;SDS011;13760;52.588;13.406;2023-04-22T09:49:40;8.55;;;5.90;;
25962;SDS011;13760;52.588;13.406;2023-04-22T09:52:24;10.57;;;5.88;;
25962;SDS011;13760;52.588;13.406;2023-04-22T09:54:55;10.82;;;5.70;;
25962;SDS011;13760;52.588;13.406;2023-04-22T09:57:21;8.85;;;5.45;;
25962;SDS011;13760;52.588;13.406;2023-04-22T10:00:04;11.00;;;6.03;;
25962;SDS011;13760;52.588;13.406;2023-04-22T10:02:34;8.40;;;5.20;;
25962;SDS011;13760;52.588;13.406;2023-04-22T10:05:13;13.05;;;5.78;;
25962;SDS011;13760;52.588;13.406;2023-04-22T10:07:39;10.50;;;5.57;;
25962;SDS011;13760;52.588;13.406;2023-04-22T10:10:15;10.75;;;5.80;;
25962;SDS011;13760;52.588;13.406;2023-04-22T10:12:43;10.32;;;5.90;;
25962;SDS011;13760;52.588;13.406;2023-04-22T10:15:13;12.07;;;5.45;;
25962;SDS011;13760;52.588;13.406;2023-04-22T10:17:38;10.23;;;5.30;;
25962;SDS011;13760;52.588;13.406;2023-04-22T10:20:08;10.70;;;5.07;;
25962;SDS011;13760;52.588;13.406;2023-04-22T10:22:37;9.90;;;5.03;;
25962;SDS011;13760;52.588;13.406;2023-04-22T10:25:04;7.55;;;4.95;;
25962;SDS011;13760;52.588;13.406;2023-04-22T10:27:34;10.03;;;5.40;;
25962;SDS011;13760;52.588;13.406;2023-04-22T10:30:02;10.70;;;5.25;;
25962;SDS011;13760;52.588;13.406;2023-04-22T10:36:20;9.68;;;5.20;;
25962;SDS011;13760;52.588;13.406;2023-04-22T10:45:23;7.22;;;4.75;;
25962;SDS011;13760;52.588;13.406;2023-04-22T10:57:45;5.28;;;4.50;;
25962;SDS011;13760;52.588;13.406;2023-04-22T11:03:12;10.80;;;5.00;;
25962;SDS011;13760;52.588;13.406;2023-04-22T11:05:57;8.75;;;5.13;;
25962;SDS011;13760;52.588;13.406;2023-04-22T11:22:25;9.10;;;4.70;;
25962;SDS011;13760;52.588;13.406;2023-04-22T11:25:18;10.77;;;4.53;;
25962;SDS011;13760;52.588;13.406;2023-04-22T11:28:04;11.73;;;4.85;;
25962;SDS011;13760;52.588;13.406;2023-04-22T11:31:07;9.18;;;5.18;;
25962;SDS011;13760;52.588;13.406;2023-04-22T11:33:34;12.13;;;5.20;;
25962;SDS011;13760;52.588;13.406;2023-04-22T11:36:13;11.68;;;4.57;;
25962;SDS011;13760;52.588;13.406;2023-04-22T11:39:00;6.75;;;5.35;;
25962;SDS011;13760;52.588;13.406;2023-04-22T11:45:01;9.13;;;4.70;;
25962;SDS011;13760;52.588;13.406;2023-04-22T11:47:57;9.55;;;4.72;;
25962;SDS011;13760;52.588;13.406;2023-04-22T11:50:24;11.25;;;4.32;;
25962;SDS011;13760;52.588;13.406;2023-04-22T11:53:00;10.38;;;4.80;;
25962;SDS011;13760;52.588;13.406;2023-04-22T11:55:57;7.03;;;4.68;;
25962;SDS011;13760;52.588;13.406;2023-04-22T11:58:33;10.45;;;4.70;;
25962;SDS011;13760;52.588;13.406;2023-04-22T12:01:05;5.80;;;4.43;;
25962;SDS011;13760;52.588;13.406;2023-04-22T12:03:39;10.57;;;4.35;;
25962;SDS011;13760;52.588;13.406;2023-04-22T12:06:05;7.05;;;4.75;;
25962;SDS011;13760;52.588;13.406;2023-04-22T12:08:34;6.97;;;4.55;;
25962;SDS011;13760;52.588;13.406;2023-04-22T12:11:04;7.72;;;4.53;;
25962;SDS011;13760;52.588;13.406;2023-04-22T12:13:41;6.82;;;4.80;;
25962;SDS011;13760;52.588;13.406;2023-04-22T12:16:10;6.72;;;4.43;;
25962;SDS011;13760;52.588;13.406;2023-04-22T12:18:38;8.95;;;4.50;;
25962;SDS011;13760;52.588;13.406;2023-04-22T12:23:44;8.45;;;4.70;;
25962;SDS011;13760;52.588;13.406;2023-04-22T12:26:13;8.38;;;4.22;;
25962;SDS011;13760;52.588;13.406;2023-04-22T12:28:40;7.20;;;4.65;;
25962;SDS011;13760;52.588;13.406;2023-04-22T12:31:07;8.93;;;4.82;;
25962;SDS011;13760;52.588;13.406;2023-04-22T12:33:34;7.40;;;4.93;;
25962;SDS011;13760;52.588;13.406;2023-04-22T12:36:03;11.80;;;4.70;;
25962;SDS011;13760;52.588;13.406;2023-04-22T12:38:33;10.10;;;4.80;;
25962;SDS011;13760;52.588;13.406;2023-04-22T12:41:00;6.80;;;4.50;;
25962;SDS011;13760;52.588;13.406;2023-04-22T12:43:26;8.15;;;4.47;;
25962;SDS011;13760;52.588;13.406;2023-04-22T12:45:52;7.55;;;4.60;;
25962;SDS011;13760;52.588;13.406;2023-04-22T12:48:21;10.18;;;4.80;;
25962;SDS011;13760;52.588;13.406;2023-04-22T12:50:46;9.23;;;4.57;;
25962;SDS011;13760;52.588;13.406;2023-04-22T12:53:13;8.38;;;4.78;;
25962;SDS011;13760;52.588;13.406;2023-04-22T12:55:39;7.90;;;4.07;;
25962;SDS011;13760;52.588;13.406;2023-04-22T12:58:08;8.27;;;4.53;;
25962;SDS011;13760;52.588;13.406;2023-04-22T13:00:40;8.20;;;4.32;;
25962;SDS011;13760;52.588;13.406;2023-04-22T13:03:06;10.57;;;4.38;;
25962;SDS011;13760;52.588;13.406;2023-04-22T13:05:32;10.43;;;4.53;;
25962;SDS011;13760;52.588;13.406;2023-04-22T13:07:57;6.55;;;4.22;;
25962;SDS011;13760;52.588;13.406;2023-04-22T13:10:23;10.27;;;4.70;;
25962;SDS011;13760;52.588;13.406;2023-04-22T13:12:52;7.90;;;4.18;;
25962;SDS011;13760;52.588;13.406;2023-04-22T13:15:18;9.07;;;4.22;;
25962;SDS011;13760;52.588;13.406;2023-04-22T13:17:44;6.03;;;4.15;;
25962;SDS011;13760;52.588;13.406;2023-04-22T13:20:10;7.57;;;4.70;;
25962;SDS011;13760;52.588;13.406;2023-04-22T13:22:38;6.10;;;4.32;;
25962;SDS011;13760;52.588;13.406;2023-04-22T13:25:04;9.45;;;4.57;;
25962;SDS011;13760;52.588;13.406;2023-04-22T13:27:31;5.07;;;4.35;;
25962;SDS011;13760;52.588;13.406;2023-04-22T13:30:00;9.02;;;4.50;;
25962;SDS011;13760;52.588;13.406;2023-04-22T13:32:31;9.00;;;4.10;;
25962;SDS011;13760;52.588;13.406;2023-04-22T13:34:57;8.18;;;3.92;;
25962;SDS011;13760;52.588;13.406;2023-04-22T13:37:23;5.85;;;4.07;;
25962;SDS011;13760;52.588;13.406;2023-04-22T13:39:54;6.43;;;4.50;;
25962;SDS011;13760;52.588;13.406;2023-04-22T13:42:20;5.38;;;4.07;;
25962;SDS011;13760;52.588;13.406;2023-04-22T13:44:45;9.85;;;4.35;;
25962;SDS011;13760;52.588;13.406;2023-04-22T13:47:11;8.65;;;4.57;;
25962;SDS011;13760;52.588;13.406;2023-04-22T13:49:37;6.40;;;4.50;;
25962;SDS011;13760;52.588;13.406;2023-04-22T13:52:02;8.30;;;4.38;;
25962;SDS011;13760;52.588;13.406;2023-04-22T13:54:28;7.25;;;4.70;;
25962;SDS011;13760;52.588;13.406;2023-04-22T13:56:55;6.10;;;4.35;;
25962;SDS011;13760;52.588;13.406;2023-04-22T13:59:21;8.10;;;4.78;;
25962;SDS011;13760;52.588;13.406;2023-04-22T14:01:46;9.55;;;4.43;;
25962;SDS011;13760;52.588;13.406;2023-04-22T14:07:15;7.05;;;4.80;;
25962;SDS011;13760;52.588;13.406;2023-04-22T14:09:41;7.55;;;4.60;;
25962;SDS011;13760;52.588;13.406;2023-04-22T14:12:07;9.13;;;4.70;;
25962;SDS011;13760;52.588;13.406;2023-04-22T14:14:32;5.45;;;4.53;;
25962;SDS011;13760;52.588;13.406;2023-04-22T14:16:58;8.00;;;4.97;;
25962;SDS011;13760;52.588;13.406;2023-04-22T14:19:24;7.68;;;5.10;;
25962;SDS011;13760;52.588;13.406;2023-04-22T14:21:50;8.55;;;4.70;;
25962;SDS011;13760;52.588;13.406;2023-04-22T14:24:15;8.43;;;4.57;;
25962;SDS011;13760;52.588;13.406;2023-04-22T14:26:41;13.80;;;4.85;;
25962;SDS011;13760;52.588;13.406;2023-04-22T14:29:06;8.48;;;5.13;;
25962;SDS011;13760;52.588;13.406;2023-04-22T14:31:32;7.28;;;4.60;;
25962;SDS011;13760;52.588;13.406;2023-04-22T14:33:58;10.55;;;4.90;;
25962;SDS011;13760;52.588;13.406;2023-04-22T14:36:24;9.02;;;4.55;;
25962;SDS011;13760;52.588;13.406;2023-04-22T14:38:50;11.10;;;5.38;;
25962;SDS011;13760;52.588;13.406;2023-04-22T14:41:16;8.32;;;4.63;;
25962;SDS011;13760;52.588;13.406;2023-04-22T14:43:41;9.05;;;4.72;;
25962;SDS011;13760;52.588;13.406;2023-04-22T14:46:07;7.93;;;4.70;;
25962;SDS011;13760;52.588;13.406;2023-04-22T14:48:32;9.35;;;4.78;;
25962;SDS011;13760;52.588;13.406;2023-04-22T14:50:59;10.13;;;4.88;;
25962;SDS011;13760;52.588;13.406;2023-04-22T14:53:25;7.45;;;4.20;;
25962;SDS011;13760;52.588;13.406;2023-04-22T14:55:51;7.60;;;4.47;;
25962;SDS011;13760;52.588;13.406;2023-04-22T14:58:17;6.10;;;4.80;;
25962;SDS011;13760;52.588;13.406;2023-04-22T15:00:42;14.45;;;5.10;;
25962;SDS011;13760;52.588;13.406;2023-04-22T15:03:08;8.20;;;4.55;;
25962;SDS011;13760;52.588;13.406;2023-04-22T15:05:35;9.65;;;4.72;;
25962;SDS011;13760;52.588;13.406;2023-04-22T15:08:04;8.98;;;5.03;;
25962;SDS011;13760;52.588;13.406;2023-04-22T15:10:33;9.25;;;4.90;;
25962;SDS011;13760;52.588;13.406;2023-04-22T15:12:59;8.52;;;4.85;;
25962;SDS011;13760;52.588;13.406;2023-04-22T15:15:25;11.23;;;5.00;;
25962;SDS011;13760;52.588;13.406;2023-04-22T15:17:51;10.50;;;5.05;;
25962;SDS011;13760;52.588;13.406;2023-04-22T15:20:16;7.80;;;4.90;;
25962;SDS011;13760;52.588;13.406;2023-04-22T15:22:42;9.95;;;4.85;;
25962;SDS011;13760;52.588;13.406;2023-04-22T15:25:08;11.82;;;5.00;;
25962;SDS011;13760;52.588;13.406;2023-04-22T15:27:35;7.85;;;5.35;;
25962;SDS011;13760;52.588;13.406;2023-04-22T15:30:02;9.23;;;5.18;;
25962;SDS011;13760;52.588;13.406;2023-04-22T15:32:29;6.95;;;4.82;;
25962;SDS011;13760;52.588;13.406;2023-04-22T15:34:55;7.50;;;4.85;;
25962;SDS011;13760;52.588;13.406;2023-04-22T15:37:21;6.80;;;4.72;;
25962;SDS011;13760;52.588;13.406;2023-04-22T15:39:48;10.50;;;4.88;;
25962;SDS011;13760;52.588;13.406;2023-04-22T15:42:13;7.00;;;4.80;;
25962;SDS011;13760;52.588;13.406;2023-04-22T15:44:39;7.78;;;4.47;;
25962;SDS011;13760;52.588;13.406;2023-04-22T15:47:05;6.95;;;4.90;;
25962;SDS011;13760;52.588;13.406;2023-04-22T15:49:34;5.72;;;4.75;;
25962;SDS011;13760;52.588;13.406;2023-04-22T15:52:00;8.00;;;4.43;;
25962;SDS011;13760;52.588;13.406;2023-04-22T15:54:26;8.15;;;4.68;;
25962;SDS011;13760;52.588;13.406;2023-04-22T15:56:52;9.15;;;4.95;;
25962;SDS011;13760;52.588;13.406;2023-04-22T15:59:17;6.40;;;4.57;;
25962;SDS011;13760;52.588;13.406;2023-04-22T16:01:43;9.43;;;4.53;;
25962;SDS011;13760;52.588;13.406;2023-04-22T16:04:09;6.75;;;4.32;;
25962;SDS011;13760;52.588;13.406;2023-04-22T16:06:35;6.25;;;4.80;;
25962;SDS011;13760;52.588;13.406;2023-04-22T16:09:02;14.68;;;8.82;;